Cardington, Ohio
Current Conditions -  °F | °C
As of 4:53 AM on Friday 31 Oct 2014 (Local Time) from KMNN Reporting Station
Overcast Overcast  
Wind Chill: 39°   Ceiling: 4900
Heat Index: 42°   Visibility: 10mi
Dew Point: 35°   Wind: 5mph
Humidity: 76%   Direction: 220°SW
Pressure: 29.98"   Gusts: NA
Location:  40.5°N, 82.89°W
Report Text: KMNN 310853Z AUTO 22004KT 10SM OVC049 06/02 A2998 RMK AO2 SLP157 T00560017 57015 TSNO
Loading
Personal Weather Stations






























Interactive Weather Map
Tropical Storm Tracking
New forecast layout! Learn more

10-Day Weather Forecast

Advertisements
Track Severe Weather on mobile